Time;durP1;ratioP1;P1;durP2;ratioP2;P2;SDS_P1;SDS_P2;PMS_P1;PMS_P2;Temp;Humidity;BMP_temperature;BMP_pressure;BME280_temperature;BME280_humidity;BME280_pressure;Samples;Min_cycle;Max_cycle;Signal;HPM_P1;HPM_P2
2021/12/29 00:02:08;;;;;;;5.22;2.50;;;10.00;99.90;;;;;;5035319;28;20116;-83
2021/12/29 00:04:34;;;;;;;5.13;3.10;;;10.00;99.90;;;;;;5035245;28;20584;-83
2021/12/29 00:07:00;;;;;;;6.30;3.30;;;10.00;99.90;;;;;;5034743;28;20641;-83
2021/12/29 00:09:26;;;;;;;6.13;3.33;;;10.00;99.90;;;;;;5035314;28;20075;-85
2021/12/29 00:11:52;;;;;;;8.02;3.58;;;10.00;99.90;;;;;;5032807;28;20491;-85
2021/12/29 00:14:18;;;;;;;5.22;3.28;;;10.00;99.90;;;;;;5035508;28;20087;-83
2021/12/29 00:16:44;;;;;;;5.90;3.25;;;10.00;99.90;;;;;;5034878;28;20421;-84
2021/12/29 00:19:10;;;;;;;7.25;3.45;;;10.00;99.90;;;;;;5035113;28;20151;-84
2021/12/29 00:21:37;;;;;;;6.40;3.33;;;10.00;99.90;;;;;;5041025;28;20021;-82
2021/12/29 00:24:04;;;;;;;6.35;2.80;;;10.00;99.90;;;;;;5044708;28;20071;-84
2021/12/29 00:26:32;;;;;;;5.43;3.03;;;10.00;99.90;;;;;;5034684;28;20476;-85
2021/12/29 00:28:59;;;;;;;4.10;3.05;;;10.10;99.90;;;;;;5034908;28;20033;-84
2021/12/29 00:31:30;;;;;;;4.40;2.90;;;10.10;99.90;;;;;;5034570;28;20842;-85
2021/12/29 00:33:56;;;;;;;4.75;2.60;;;10.00;99.90;;;;;;5034934;28;20438;-84
2021/12/29 00:36:22;;;;;;;6.80;2.63;;;10.00;99.90;;;;;;5034431;28;20037;-85
2021/12/29 00:38:48;;;;;;;6.53;2.80;;;10.00;99.90;;;;;;5034367;28;20087;-84
2021/12/29 00:41:15;;;;;;;6.43;2.65;;;10.00;99.90;;;;;;5034071;28;20148;-85
2021/12/29 00:43:40;;;;;;;5.68;2.60;;;10.00;99.90;;;;;;5034250;28;20056;-84
2021/12/29 00:46:11;;;;;;;6.07;2.67;;;10.00;99.90;;;;;;5034345;28;20464;-85
2021/12/29 00:48:41;;;;;;;4.97;2.47;;;10.00;99.90;;;;;;5034030;28;20162;-85
2021/12/29 00:51:07;;;;;;;4.35;2.90;;;10.00;99.90;;;;;;5034130;28;20080;-84
2021/12/29 00:53:33;;;;;;;7.70;3.40;;;10.00;99.90;;;;;;5034176;28;20113;-84
2021/12/29 00:55:59;;;;;;;6.25;3.10;;;10.00;99.90;;;;;;5034482;28;20113;-84
2021/12/29 00:58:25;;;;;;;7.38;2.70;;;10.00;99.90;;;;;;5034072;28;20033;-83
2021/12/29 01:00:51;;;;;;;4.57;2.80;;;10.00;99.90;;;;;;5034493;28;20067;-84
2021/12/29 01:03:17;;;;;;;5.72;3.55;;;10.00;99.90;;;;;;5034034;28;20038;-83
2021/12/29 01:05:43;;;;;;;6.88;4.00;;;10.00;99.90;;;;;;5033782;28;20025;-83
2021/12/29 01:08:10;;;;;;;10.32;4.57;;;10.00;99.90;;;;;;5034423;28;20128;-83
2021/12/29 01:10:37;;;;;;;8.63;4.50;;;10.00;99.90;;;;;;5033836;28;20028;-83
2021/12/29 01:13:03;;;;;;;7.95;4.20;;;10.00;99.90;;;;;;5033977;28;20416;-84
2021/12/29 01:18:38;;;;;;;7.90;4.95;;;10.00;99.90;;;;;;5027670;28;20038;-84
2021/12/29 01:21:05;;;;;;;9.90;4.80;;;10.00;99.90;;;;;;5033706;28;20060;-85
2021/12/29 01:23:31;;;;;;;9.38;4.22;;;10.00;99.90;;;;;;5033509;28;20079;-85
2021/12/29 01:25:56;;;;;;;9.45;4.07;;;10.00;99.90;;;;;;5033672;28;20026;-83
2021/12/29 01:28:22;;;;;;;8.93;4.78;;;10.00;99.90;;;;;;5033565;28;20128;-86
2021/12/29 01:30:48;;;;;;;10.32;4.18;;;10.00;99.90;;;;;;5033816;28;20026;-86
2021/12/29 01:33:14;;;;;;;9.68;4.68;;;10.00;99.90;;;;;;5033459;28;20021;-86
2021/12/29 01:35:41;;;;;;;8.05;5.15;;;10.00;99.90;;;;;;5033285;28;20056;-86
2021/12/29 01:38:08;;;;;;;11.32;6.22;;;10.00;99.90;;;;;;5033294;28;20443;-87
2021/12/29 01:40:36;;;;;;;13.93;7.18;;;10.00;99.90;;;;;;5031333;28;20030;-86
2021/12/29 01:43:04;;;;;;;15.95;6.28;;;10.00;99.90;;;;;;5033478;28;20037;-87
2021/12/29 01:45:30;;;;;;;14.82;7.63;;;10.00;99.90;;;;;;5033676;28;20103;-86
2021/12/29 01:47:56;;;;;;;16.63;7.30;;;10.10;99.90;;;;;;5033595;28;20423;-85
2021/12/29 01:50:22;;;;;;;14.50;7.47;;;10.10;99.90;;;;;;5033071;28;20234;-86
2021/12/29 01:52:55;;;;;;;15.55;6.65;;;10.10;99.90;;;;;;5033510;28;20043;-86
2021/12/29 01:55:25;;;;;;;15.77;7.47;;;10.10;99.90;;;;;;5032954;28;20091;-85
2021/12/29 01:57:51;;;;;;;16.88;7.15;;;10.10;99.90;;;;;;5033185;28;20591;-87
2021/12/29 02:00:20;;;;;;;16.85;7.70;;;10.10;99.90;;;;;;5033314;28;20052;-87
2021/12/29 02:02:46;;;;;;;13.60;7.38;;;10.10;99.90;;;;;;5033068;28;20025;-86
2021/12/29 02:05:12;;;;;;;15.25;6.60;;;10.10;99.90;;;;;;5032866;28;20052;-87
2021/12/29 02:07:38;;;;;;;14.70;7.80;;;10.10;99.90;;;;;;5033374;28;20024;-87
2021/12/29 02:10:05;;;;;;;18.95;8.30;;;10.10;99.90;;;;;;5033289;28;20029;-86
2021/12/29 02:12:31;;;;;;;14.05;7.40;;;10.10;99.90;;;;;;5032180;28;20431;-87
2021/12/29 02:14:57;;;;;;;15.50;7.65;;;10.10;99.90;;;;;;5033459;28;20029;-86
2021/12/29 02:17:23;;;;;;;15.68;7.82;;;10.00;99.90;;;;;;5032741;28;20037;-86
2021/12/29 02:19:49;;;;;;;15.80;7.63;;;10.10;99.90;;;;;;5031861;28;20030;-85
2021/12/29 02:22:32;;;;;;;17.70;8.23;;;10.10;99.90;;;;;;5033031;28;20022;-86
2021/12/29 02:25:20;;;;;;;17.55;8.23;;;10.10;99.90;;;;;;5030872;28;20065;-86
2021/12/29 02:27:48;;;;;;;20.08;8.25;;;10.10;99.90;;;;;;5025369;28;20037;-86
2021/12/29 02:30:16;;;;;;;16.63;8.40;;;10.10;99.90;;;;;;5032307;28;20029;-86
2021/12/29 02:32:42;;;;;;;18.17;8.15;;;10.10;99.90;;;;;;5032472;28;20112;-86
2021/12/29 02:35:10;;;;;;;16.65;7.28;;;10.10;99.90;;;;;;5032124;28;20342;-85
2021/12/29 02:37:37;;;;;;;15.18;6.40;;;10.10;99.90;;;;;;5031831;28;20033;-85
2021/12/29 02:40:03;;;;;;;16.25;7.85;;;10.00;99.90;;;;;;5031795;28;20037;-85
2021/12/29 02:42:31;;;;;;;14.13;6.57;;;10.00;99.90;;;;;;5032768;28;20060;-85
2021/12/29 02:45:01;;;;;;;14.70;6.68;;;10.00;99.90;;;;;;5032244;28;20033;-82
2021/12/29 02:47:27;;;;;;;18.23;7.35;;;10.00;99.90;;;;;;5032179;28;20026;-84
2021/12/29 02:49:53;;;;;;;13.57;7.32;;;10.10;99.90;;;;;;5031652;28;20017;-83
2021/12/29 02:52:19;;;;;;;14.00;7.03;;;10.10;99.90;;;;;;5032860;28;20025;-83
2021/12/29 02:54:44;;;;;;;12.95;6.60;;;10.10;99.90;;;;;;5031289;28;20447;-85
2021/12/29 02:57:10;;;;;;;13.85;6.65;;;10.10;99.90;;;;;;5031807;28;20037;-83
2021/12/29 02:59:36;;;;;;;14.13;6.97;;;10.10;99.90;;;;;;5031372;28;20103;-82
2021/12/29 03:02:02;;;;;;;12.40;6.25;;;10.10;99.90;;;;;;5029534;28;20022;-82
2021/12/29 03:04:27;;;;;;;14.45;7.13;;;10.10;99.90;;;;;;5032040;28;20087;-84
2021/12/29 03:06:53;;;;;;;15.13;6.53;;;10.10;99.90;;;;;;5031929;28;20079;-84
2021/12/29 03:09:19;;;;;;;13.05;6.78;;;10.20;99.90;;;;;;5032538;28;20022;-87
2021/12/29 03:11:46;;;;;;;14.43;7.40;;;10.20;99.90;;;;;;5032711;28;20108;-87
2021/12/29 03:14:14;;;;;;;15.23;7.43;;;10.10;99.90;;;;;;5032064;28;20032;-87
2021/12/29 03:16:40;;;;;;;16.10;7.28;;;10.20;99.90;;;;;;5031504;28;20044;-87
2021/12/29 03:19:06;;;;;;;16.80;7.20;;;10.20;99.90;;;;;;5031871;28;20504;-87
2021/12/29 03:21:33;;;;;;;15.60;7.80;;;10.20;99.90;;;;;;5031846;28;20029;-86
2021/12/29 03:23:59;;;;;;;16.15;7.53;;;10.20;99.90;;;;;;5032803;28;20033;-86
2021/12/29 03:26:24;;;;;;;16.65;7.70;;;10.20;99.90;;;;;;5035686;28;20068;-86
2021/12/29 03:28:51;;;;;;;16.05;7.43;;;10.20;99.90;;;;;;5036199;28;20487;-84
2021/12/29 03:31:18;;;;;;;18.65;7.20;;;10.20;99.90;;;;;;5035651;28;20534;-85
2021/12/29 03:33:45;;;;;;;14.23;6.47;;;10.30;99.90;;;;;;5035607;28;20385;-84
2021/12/29 03:36:12;;;;;;;16.80;7.45;;;10.20;99.90;;;;;;5035768;28;20104;-86
2021/12/29 03:38:40;;;;;;;15.35;6.90;;;10.20;99.90;;;;;;5035321;28;20404;-85
2021/12/29 03:41:09;;;;;;;11.13;5.43;;;10.20;99.90;;;;;;5035107;28;20022;-85
2021/12/29 03:43:35;;;;;;;11.07;5.95;;;10.20;99.90;;;;;;5033219;28;20030;-86
2021/12/29 03:46:04;;;;;;;13.55;5.63;;;10.20;99.90;;;;;;5035346;28;20022;-84
2021/12/29 03:48:30;;;;;;;11.98;4.70;;;10.20;99.90;;;;;;5035573;28;20026;-84
2021/12/29 03:50:58;;;;;;;16.77;5.25;;;10.20;99.90;;;;;;5034749;28;20033;-86
2021/12/29 03:53:24;;;;;;;15.50;5.38;;;10.20;99.90;;;;;;5035257;28;20034;-86
2021/12/29 03:55:51;;;;;;;18.08;4.78;;;10.20;99.90;;;;;;5035835;28;20034;-85
2021/12/29 03:58:18;;;;;;;17.33;4.60;;;10.20;99.90;;;;;;5035310;28;20088;-84
2021/12/29 04:00:44;;;;;;;13.52;4.70;;;10.20;99.90;;;;;;5035171;28;20047;-84
2021/12/29 04:03:10;;;;;;;14.05;4.55;;;10.20;99.90;;;;;;5032190;28;20025;-84
2021/12/29 04:05:36;;;;;;;17.67;4.55;;;10.20;99.90;;;;;;5035238;28;20039;-82
2021/12/29 04:08:02;;;;;;;21.23;4.82;;;10.20;99.90;;;;;;5035027;28;20034;-83
2021/12/29 04:10:28;;;;;;;17.25;4.78;;;10.10;99.90;;;;;;5036395;28;20021;-82
2021/12/29 04:12:54;;;;;;;19.60;5.82;;;10.20;99.90;;;;;;5044236;28;20059;-83
2021/12/29 04:15:20;;;;;;;24.02;5.78;;;10.20;99.90;;;;;;5035308;28;20024;-83
2021/12/29 04:17:46;;;;;;;17.33;5.25;;;10.10;99.90;;;;;;5035241;28;20477;-83
2021/12/29 04:23:01;;;;;;;22.17;5.75;;;10.10;99.90;;;;;;5031691;28;20051;-83
2021/12/29 04:25:29;;;;;;;23.73;5.70;;;10.00;99.90;;;;;;5035730;28;20030;-83
2021/12/29 04:27:57;;;;;;;13.90;5.40;;;10.10;99.90;;;;;;5035364;28;20488;-83
2021/12/29 04:30:24;;;;;;;17.48;5.25;;;10.10;99.90;;;;;;5034296;28;20033;-84
2021/12/29 04:32:52;;;;;;;21.38;5.50;;;10.10;99.90;;;;;;5035863;28;20108;-84
2021/12/29 04:35:20;;;;;;;17.50;5.40;;;10.10;99.90;;;;;;5035296;28;20103;-82
2021/12/29 04:37:45;;;;;;;18.60;6.03;;;10.10;99.90;;;;;;5036350;28;20552;-83
2021/12/29 04:40:11;;;;;;;16.73;5.40;;;10.10;99.90;;;;;;5035839;28;20103;-83
2021/12/29 04:42:37;;;;;;;14.27;4.47;;;10.10;99.90;;;;;;5040604;28;20492;-84
2021/12/29 04:45:04;;;;;;;11.73;4.57;;;10.10;99.90;;;;;;5037302;28;20029;-83
2021/12/29 04:47:31;;;;;;;13.88;4.43;;;10.10;99.90;;;;;;5034577;28;20034;-83
2021/12/29 04:50:00;;;;;;;14.68;4.53;;;10.10;99.90;;;;;;5033942;28;20076;-83
2021/12/29 04:52:27;;;;;;;12.40;4.40;;;10.10;99.90;;;;;;5034343;28;20025;-83
2021/12/29 04:54:53;;;;;;;14.50;4.57;;;10.10;99.90;;;;;;5033503;28;20550;-84
2021/12/29 04:57:19;;;;;;;16.63;4.15;;;10.10;99.90;;;;;;5034372;28;20029;-83
2021/12/29 04:59:44;;;;;;;17.17;4.88;;;10.10;99.90;;;;;;5034188;28;20120;-83
2021/12/29 05:02:10;;;;;;;15.43;4.40;;;10.10;99.90;;;;;;5034752;28;20029;-85
2021/12/29 05:04:45;;;;;;;14.70;4.50;;;10.10;99.90;;;;;;5034163;28;20029;-84
2021/12/29 05:09:57;;;;;;;17.13;4.55;;;10.10;99.90;;;;;;5051000;28;20036;-82
2021/12/29 05:12:22;;;;;;;14.40;4.18;;;10.10;99.90;;;;;;5034994;28;20052;-83
2021/12/29 05:14:48;;;;;;;16.33;4.35;;;10.10;99.90;;;;;;5033981;28;20030;-83
2021/12/29 05:17:14;;;;;;;13.43;5.10;;;10.10;99.90;;;;;;5034141;28;20373;-84
2021/12/29 05:19:39;;;;;;;14.77;4.68;;;10.10;99.90;;;;;;5033720;28;20067;-84
2021/12/29 05:22:05;;;;;;;11.88;4.53;;;10.10;99.90;;;;;;5033799;28;20091;-85
2021/12/29 05:24:31;;;;;;;10.38;4.38;;;10.10;99.90;;;;;;5031279;28;20033;-84
2021/12/29 05:26:57;;;;;;;13.77;4.63;;;10.10;99.90;;;;;;5033454;28;20342;-85
2021/12/29 05:29:23;;;;;;;13.50;5.40;;;10.10;99.90;;;;;;5033539;28;20060;-84
2021/12/29 05:31:49;;;;;;;13.88;5.30;;;10.10;99.90;;;;;;5034185;28;20457;-89
2021/12/29 05:34:14;;;;;;;16.33;5.57;;;10.10;99.90;;;;;;5034141;28;20496;-86
2021/12/29 05:36:40;;;;;;;19.15;7.38;;;10.10;99.90;;;;;;5033772;28;20021;-85
2021/12/29 05:39:06;;;;;;;14.73;6.22;;;10.10;99.90;;;;;;5033592;28;20120;-85
2021/12/29 05:41:32;;;;;;;10.68;5.40;;;10.10;99.90;;;;;;5033484;28;20045;-86
2021/12/29 05:43:58;;;;;;;13.48;5.57;;;10.10;99.90;;;;;;5033496;28;20080;-86
2021/12/29 05:46:23;;;;;;;10.02;6.00;;;10.00;99.90;;;;;;5032813;28;20055;-85
2021/12/29 05:48:49;;;;;;;11.63;6.07;;;10.00;99.90;;;;;;5032698;28;20048;-87
2021/12/29 05:51:14;;;;;;;11.75;6.13;;;10.00;99.90;;;;;;5033287;28;20037;-86
2021/12/29 05:53:41;;;;;;;8.90;5.97;;;10.10;99.90;;;;;;5033356;28;20033;-85
2021/12/29 05:56:08;;;;;;;10.68;7.00;;;10.10;99.90;;;;;;5033416;28;20029;-85
2021/12/29 05:58:34;;;;;;;17.40;7.22;;;10.10;99.90;;;;;;5033040;28;20029;-84
2021/12/29 06:00:59;;;;;;;12.02;7.50;;;10.00;99.90;;;;;;5033359;28;20060;-84
2021/12/29 06:03:25;;;;;;;13.65;7.88;;;10.10;99.90;;;;;;5033434;28;20393;-85
2021/12/29 06:05:51;;;;;;;13.70;8.15;;;10.00;99.90;;;;;;5032695;28;20103;-87
2021/12/29 06:08:16;;;;;;;15.80;9.00;;;10.00;99.90;;;;;;5032812;28;20032;-87
2021/12/29 06:10:42;;;;;;;15.38;8.55;;;10.00;99.90;;;;;;5033114;28;20397;-86
2021/12/29 06:13:08;;;;;;;9.88;6.82;;;10.00;99.90;;;;;;5033732;28;20025;-85
2021/12/29 06:15:33;;;;;;;8.55;6.72;;;10.00;99.90;;;;;;5033218;28;20017;-86
2021/12/29 06:17:59;;;;;;;13.82;7.40;;;10.00;99.90;;;;;;5033752;28;20034;-86
2021/12/29 06:20:25;;;;;;;13.77;6.75;;;10.00;99.90;;;;;;5033043;28;20416;-86
2021/12/29 06:22:51;;;;;;;9.85;6.57;;;10.00;99.90;;;;;;5033476;28;20033;-86
2021/12/29 06:25:19;;;;;;;9.50;6.25;;;10.00;99.90;;;;;;5032297;28;20128;-83
2021/12/29 06:27:46;;;;;;;10.25;6.22;;;10.00;99.90;;;;;;5032502;28;20104;-84
2021/12/29 06:30:14;;;;;;;8.27;5.93;;;10.10;99.90;;;;;;5032676;28;20075;-82
2021/12/29 06:32:41;;;;;;;9.55;6.10;;;10.10;99.90;;;;;;5031978;28;20083;-81
2021/12/29 06:35:09;;;;;;;8.73;5.55;;;10.10;99.90;;;;;;5032204;28;20026;-81
2021/12/29 06:37:35;;;;;;;7.28;5.47;;;10.00;99.90;;;;;;5032437;28;20188;-80
2021/12/29 06:40:02;;;;;;;12.65;5.90;;;10.00;99.90;;;;;;5032372;28;20025;-82
2021/12/29 06:42:27;;;;;;;8.02;5.25;;;10.10;99.90;;;;;;5031629;28;20372;-80
2021/12/29 06:44:53;;;;;;;8.93;5.97;;;10.10;99.90;;;;;;5029448;28;20026;-79
2021/12/29 06:47:19;;;;;;;7.88;5.40;;;10.10;99.90;;;;;;5032002;28;20021;-82
2021/12/29 06:49:44;;;;;;;9.63;5.75;;;10.10;99.90;;;;;;5029194;28;20508;-81
2021/12/29 06:52:11;;;;;;;6.85;5.00;;;10.10;99.90;;;;;;5031027;28;20472;-82
2021/12/29 06:54:38;;;;;;;4.72;3.92;;;10.10;99.90;;;;;;5031943;28;20069;-82
2021/12/29 06:57:03;;;;;;;7.95;3.75;;;10.10;99.90;;;;;;5032256;28;20075;-82
2021/12/29 06:59:30;;;;;;;4.60;3.67;;;10.10;99.90;;;;;;5032092;28;20108;-82
2021/12/29 07:01:55;;;;;;;3.75;3.30;;;10.10;99.90;;;;;;5032049;28;20025;-82
2021/12/29 07:04:23;;;;;;;8.55;4.00;;;10.10;99.90;;;;;;5039861;28;20052;-82
2021/12/29 07:06:50;;;;;;;5.40;3.15;;;10.10;99.90;;;;;;5033824;28;20052;-82
2021/12/29 07:09:16;;;;;;;4.70;3.05;;;10.10;99.90;;;;;;5031437;28;20055;-82
2021/12/29 07:11:42;;;;;;;6.25;3.63;;;10.10;99.90;;;;;;5030091;28;20465;-82
2021/12/29 07:14:09;;;;;;;8.05;3.80;;;10.10;99.90;;;;;;5030340;28;20022;-83
2021/12/29 07:16:37;;;;;;;11.52;4.10;;;10.10;99.90;;;;;;5029704;28;20495;-82
2021/12/29 07:19:03;;;;;;;8.27;4.63;;;10.00;99.90;;;;;;5029723;28;20386;-85
2021/12/29 07:21:29;;;;;;;14.77;4.80;;;10.00;99.90;;;;;;5031793;28;20033;-82
2021/12/29 07:23:55;;;;;;;11.93;4.90;;;10.10;99.90;;;;;;5031680;28;20374;-84
2021/12/29 07:26:24;;;;;;;13.32;6.47;;;10.00;99.90;;;;;;5029866;28;20040;-80
2021/12/29 07:28:51;;;;;;;12.38;6.72;;;10.10;99.90;;;;;;5032017;28;20087;-83
2021/12/29 07:31:17;;;;;;;13.68;7.47;;;10.10;99.90;;;;;;5032697;28;20033;-89
2021/12/29 07:33:43;;;;;;;19.15;7.18;;;10.10;99.90;;;;;;5032878;28;20033;-89
2021/12/29 07:36:11;;;;;;;20.67;7.30;;;10.10;99.90;;;;;;5032621;28;20113;-88
2021/12/29 07:38:37;;;;;;;19.10;7.13;;;10.10;99.90;;;;;;5032300;28;20042;-88
2021/12/29 07:41:03;;;;;;;16.52;7.18;;;10.10;99.90;;;;;;5032365;28;20037;-89
2021/12/29 07:43:28;;;;;;;17.98;7.65;;;10.10;99.90;;;;;;5031947;28;20380;-88
2021/12/29 07:45:55;;;;;;;18.85;8.52;;;10.10;99.90;;;;;;5031378;28;20037;-78
2021/12/29 07:48:26;;;;;;;18.77;7.53;;;10.10;99.90;;;;;;5030733;28;20116;-79
2021/12/29 07:50:52;;;;;;;15.18;6.72;;;10.10;99.90;;;;;;5028945;28;20384;-78
2021/12/29 07:53:18;;;;;;;15.95;6.93;;;10.10;99.90;;;;;;5030666;28;20025;-78
2021/12/29 07:55:44;;;;;;;19.20;7.43;;;10.10;99.90;;;;;;5030762;28;20030;-78
2021/12/29 07:58:09;;;;;;;15.80;7.68;;;10.10;99.90;;;;;;5031645;28;20044;-79
2021/12/29 08:00:35;;;;;;;19.73;8.57;;;10.10;99.90;;;;;;5030778;28;20026;-78
2021/12/29 08:03:01;;;;;;;19.77;9.20;;;10.10;99.90;;;;;;5031060;28;20441;-78
2021/12/29 08:05:27;;;;;;;19.98;7.80;;;10.00;99.90;;;;;;5031096;28;20087;-79
2021/12/29 08:07:52;;;;;;;19.77;8.32;;;10.10;99.90;;;;;;5031374;28;20033;-76
2021/12/29 08:10:19;;;;;;;17.33;8.45;;;10.00;99.90;;;;;;5032465;28;20052;-78
2021/12/29 08:12:44;;;;;;;20.80;9.57;;;10.00;99.90;;;;;;5035127;28;20071;-78
2021/12/29 08:15:11;;;;;;;20.75;8.63;;;10.00;99.90;;;;;;5034537;28;20104;-78
2021/12/29 08:17:39;;;;;;;21.48;9.88;;;10.00;99.90;;;;;;5034682;28;20084;-77
2021/12/29 08:20:07;;;;;;;19.60;9.27;;;10.10;99.90;;;;;;5034648;28;20477;-80
2021/12/29 08:22:32;;;;;;;19.73;9.55;;;10.00;99.90;;;;;;5034397;28;20029;-80
2021/12/29 08:24:58;;;;;;;24.98;11.00;;;10.00;99.90;;;;;;5034847;28;20033;-83
2021/12/29 08:27:24;;;;;;;19.85;10.65;;;10.00;99.90;;;;;;5032303;28;20029;-80
2021/12/29 08:29:53;;;;;;;19.10;9.95;;;10.00;99.90;;;;;;5034648;28;20028;-78
2021/12/29 08:32:20;;;;;;;20.90;9.88;;;10.00;99.90;;;;;;5033377;28;20685;-77
2021/12/29 08:34:46;;;;;;;24.23;10.27;;;10.00;99.90;;;;;;5033508;28;20021;-77
2021/12/29 08:37:12;;;;;;;19.45;9.73;;;10.10;99.90;;;;;;5034095;28;20039;-78
2021/12/29 08:39:38;;;;;;;16.98;8.45;;;10.10;99.90;;;;;;5031395;28;20483;-74
2021/12/29 08:42:03;;;;;;;20.85;8.48;;;10.10;99.90;;;;;;5034039;28;20030;-74
2021/12/29 08:44:29;;;;;;;18.83;8.98;;;10.20;99.90;;;;;;5034031;28;20026;-76
2021/12/29 08:46:55;;;;;;;22.02;8.85;;;10.20;99.90;;;;;;5034303;28;20029;-74
2021/12/29 08:49:20;;;;;;;22.17;8.77;;;10.20;99.90;;;;;;5033534;28;20040;-74
2021/12/29 08:51:46;;;;;;;24.35;9.10;;;10.30;99.90;;;;;;5034018;28;20017;-73
2021/12/29 08:54:12;;;;;;;18.35;8.20;;;10.30;99.90;;;;;;5033847;28;20046;-74
2021/12/29 08:56:38;;;;;;;22.10;8.93;;;10.40;99.90;;;;;;5034072;28;20413;-75
2021/12/29 08:59:04;;;;;;;20.83;8.05;;;10.40;99.90;;;;;;5034187;28;20041;-77
2021/12/29 09:01:29;;;;;;;19.65;8.93;;;10.40;99.90;;;;;;5033902;28;20030;-76
2021/12/29 09:03:55;;;;;;;19.35;8.93;;;10.40;99.90;;;;;;5033575;28;20034;-75
2021/12/29 09:06:22;;;;;;;16.00;9.25;;;10.50;99.90;;;;;;5032363;28;20082;-76
2021/12/29 09:08:48;;;;;;;20.42;9.18;;;10.50;99.90;;;;;;5033756;28;20472;-76
2021/12/29 09:11:14;;;;;;;19.85;8.60;;;10.50;99.90;;;;;;5033488;28;20032;-75
2021/12/29 09:13:40;;;;;;;28.08;10.43;;;10.50;99.90;;;;;;5033834;28;20087;-77
2021/12/29 09:16:06;;;;;;;16.23;8.73;;;10.50;99.90;;;;;;5033086;28;20034;-76
2021/12/29 09:18:35;;;;;;;20.27;9.68;;;10.50;99.90;;;;;;5033671;28;20041;-75
2021/12/29 09:21:06;;;;;;;20.40;9.43;;;10.60;99.90;;;;;;5032980;28;20108;-75
2021/12/29 09:23:32;;;;;;;21.23;8.95;;;10.50;99.90;;;;;;5033215;28;20473;-75
2021/12/29 09:25:58;;;;;;;24.65;10.38;;;10.50;99.90;;;;;;5033479;28;20503;-75
2021/12/29 09:28:24;;;;;;;25.15;9.07;;;10.50;99.90;;;;;;5033644;28;20030;-77
2021/12/29 09:30:50;;;;;;;22.30;9.93;;;10.50;99.90;;;;;;5032152;28;20048;-77
2021/12/29 09:33:19;;;;;;;19.02;10.60;;;10.50;99.90;;;;;;5033478;28;20108;-77
2021/12/29 09:35:47;;;;;;;21.67;10.68;;;10.50;99.90;;;;;;5033117;28;20372;-75
2021/12/29 09:38:15;;;;;;;19.20;9.73;;;10.50;99.90;;;;;;5032746;28;20528;-76
2021/12/29 09:40:42;;;;;;;26.08;10.95;;;10.50;99.90;;;;;;5032660;28;20033;-80
2021/12/29 09:43:08;;;;;;;21.35;9.55;;;10.50;99.90;;;;;;5033019;28;20029;-78
2021/12/29 09:45:37;;;;;;;19.67;10.90;;;10.50;99.90;;;;;;5032454;28;20037;-76
2021/12/29 09:48:03;;;;;;;19.52;9.77;;;10.50;99.90;;;;;;5032923;28;20448;-76
2021/12/29 09:50:29;;;;;;;23.75;11.00;;;10.50;99.90;;;;;;5032223;28;20366;-79
2021/12/29 09:52:56;;;;;;;23.85;11.27;;;10.60;99.90;;;;;;5030848;28;20040;-79
2021/12/29 09:55:24;;;;;;;18.20;9.82;;;10.60;99.90;;;;;;5031458;28;20041;-78
2021/12/29 09:57:57;;;;;;;18.17;10.38;;;10.60;99.90;;;;;;5020469;28;20042;-77
2021/12/29 10:00:28;;;;;;;21.35;10.60;;;10.60;99.90;;;;;;5030882;28;20063;-75
2021/12/29 10:02:56;;;;;;;17.52;9.25;;;10.70;99.90;;;;;;5030626;28;20037;-75
2021/12/29 10:05:24;;;;;;;17.98;10.90;;;10.60;99.90;;;;;;5030782;28;20025;-76
2021/12/29 10:08:06;;;;;;;17.88;10.60;;;10.70;99.90;;;;;;5018702;28;20030;-77
2021/12/29 10:10:33;;;;;;;17.08;9.80;;;10.70;99.90;;;;;;5027438;28;20029;-77
2021/12/29 10:13:00;;;;;;;22.95;10.65;;;10.70;99.90;;;;;;5020942;28;20432;-77
2021/12/29 10:15:28;;;;;;;20.10;11.45;;;10.70;99.90;;;;;;5027059;28;20160;-75
2021/12/29 10:18:11;;;;;;;20.20;9.52;;;10.70;99.90;;;;;;5029649;28;20628;-77
2021/12/29 10:21:03;;;;;;;20.65;10.15;;;10.70;99.90;;;;;;5031561;28;20044;-75
2021/12/29 10:23:32;;;;;;;18.40;11.10;;;10.70;99.90;;;;;;5023783;28;20492;-76
2021/12/29 10:26:25;;;;;;;17.52;10.45;;;10.70;99.90;;;;;;5032654;28;20063;-77
2021/12/29 10:28:54;;;;;;;20.60;10.10;;;10.70;99.90;;;;;;5014032;28;20117;-75
2021/12/29 10:31:25;;;;;;;20.42;11.38;;;10.70;99.90;;;;;;5013718;28;20029;-77
2021/12/29 10:33:57;;;;;;;17.83;10.75;;;10.70;99.90;;;;;;5023152;28;20532;-76
2021/12/29 10:36:24;;;;;;;16.50;10.82;;;10.70;99.90;;;;;;5032002;28;20029;-76
2021/12/29 10:39:10;;;;;;;17.40;8.60;;;10.70;99.90;;;;;;5031925;28;20048;-76
2021/12/29 10:41:50;;;;;;;18.23;10.20;;;10.80;99.90;;;;;;5028935;28;20029;-75
2021/12/29 10:44:24;;;;;;;20.40;10.35;;;10.90;99.90;;;;;;5031523;28;20116;-75
2021/12/29 10:46:52;;;;;;;18.67;9.27;;;10.90;99.90;;;;;;5031854;28;20079;-75
2021/12/29 10:49:18;;;;;;;16.52;9.40;;;10.90;99.90;;;;;;5031819;28;20033;-76
2021/12/29 10:51:45;;;;;;;18.23;10.02;;;11.00;99.90;;;;;;5032470;28;20033;-74
2021/12/29 10:54:16;;;;;;;19.73;10.13;;;11.10;99.90;;;;;;5031815;28;20052;-75
2021/12/29 10:56:45;;;;;;;16.52;10.18;;;11.10;99.90;;;;;;5031710;28;20377;-77
2021/12/29 10:59:14;;;;;;;17.88;10.68;;;11.10;99.90;;;;;;5032003;28;20033;-75
2021/12/29 11:01:40;;;;;;;11.50;8.40;;;11.10;99.90;;;;;;5031613;28;20092;-75
2021/12/29 11:04:08;;;;;;;16.35;9.55;;;11.10;99.90;;;;;;5031531;28;20112;-75
2021/12/29 11:06:41;;;;;;;20.27;9.77;;;11.10;99.90;;;;;;5032084;28;20033;-74
2021/12/29 11:09:07;;;;;;;15.18;8.40;;;11.10;99.90;;;;;;5029423;28;20032;-76
2021/12/29 11:11:36;;;;;;;14.18;8.52;;;11.10;99.90;;;;;;5016263;28;20034;-75
2021/12/29 11:14:29;;;;;;;19.17;8.88;;;11.10;99.90;;;;;;5020574;28;20029;-75
2021/12/29 11:17:10;;;;;;;16.75;9.45;;;11.10;99.90;;;;;;5019150;28;20052;-76
2021/12/29 11:19:38;;;;;;;12.70;8.88;;;11.10;99.90;;;;;;5021769;28;20509;-76
2021/12/29 11:22:14;;;;;;;15.88;8.90;;;11.10;99.90;;;;;;5018498;28;20393;-75
2021/12/29 11:24:42;;;;;;;15.45;8.43;;;11.20;99.90;;;;;;5020316;28;20533;-75
2021/12/29 11:27:13;;;;;;;12.02;7.93;;;11.10;99.90;;;;;;5021246;28;20049;-76
2021/12/29 11:30:10;;;;;;;11.07;8.15;;;11.10;99.90;;;;;;5024263;28;20029;-75
2021/12/29 11:32:42;;;;;;;11.25;7.95;;;11.10;99.90;;;;;;5016349;28;20034;-75
2021/12/29 11:35:12;;;;;;;18.48;8.35;;;11.10;99.90;;;;;;5015943;28;20045;-76
2021/12/29 11:37:47;;;;;;;11.20;7.80;;;11.00;99.90;;;;;;5022613;28;20037;-76
2021/12/29 11:40:17;;;;;;;11.35;7.57;;;11.00;99.90;;;;;;5022818;28;20054;-75
2021/12/29 11:42:43;;;;;;;11.73;8.48;;;11.10;99.90;;;;;;5020493;28;20025;-76
2021/12/29 11:45:11;;;;;;;11.80;8.25;;;11.00;99.90;;;;;;5018827;28;20033;-76
2021/12/29 11:47:37;;;;;;;16.52;9.77;;;11.00;99.90;;;;;;5026577;28;20477;-76
2021/12/29 11:50:05;;;;;;;15.00;8.80;;;10.90;99.90;;;;;;5025843;28;20063;-75
2021/12/29 11:53:09;;;;;;;12.70;8.90;;;10.90;99.90;;;;;;5022172;28;20416;-74
2021/12/29 11:55:42;;;;;;;13.48;8.13;;;11.00;99.90;;;;;;5018279;28;20037;-74
2021/12/29 11:58:13;;;;;;;13.52;8.82;;;11.00;99.90;;;;;;5028729;28;20068;-75
2021/12/29 12:00:39;;;;;;;11.50;8.40;;;11.00;99.90;;;;;;5032434;28;20044;-77
2021/12/29 12:03:14;;;;;;;11.68;8.50;;;11.00;99.90;;;;;;5034615;28;20025;-79
2021/12/29 12:05:43;;;;;;;12.20;8.18;;;11.00;99.90;;;;;;5034857;28;20051;-78
2021/12/29 12:08:15;;;;;;;12.98;8.98;;;11.00;99.90;;;;;;5034115;28;20393;-77
2021/12/29 12:10:42;;;;;;;12.50;8.77;;;11.10;99.90;;;;;;5035037;28;20393;-79
2021/12/29 12:13:20;;;;;;;14.45;9.15;;;11.10;99.90;;;;;;5034768;28;20022;-80
2021/12/29 12:15:46;;;;;;;11.23;8.60;;;11.10;99.90;;;;;;5034669;28;20029;-78
2021/12/29 12:18:12;;;;;;;13.55;9.15;;;11.10;99.90;;;;;;5034431;28;20029;-77
2021/12/29 12:20:40;;;;;;;14.43;8.93;;;11.10;99.90;;;;;;5034026;28;20021;-78
2021/12/29 12:23:06;;;;;;;14.27;8.68;;;11.10;99.90;;;;;;5034761;28;20045;-78
2021/12/29 12:25:32;;;;;;;17.15;9.55;;;11.20;99.90;;;;;;5031605;28;20104;-77
2021/12/29 12:28:02;;;;;;;13.13;9.07;;;11.10;99.90;;;;;;5033949;28;20029;-74
2021/12/29 12:30:40;;;;;;;13.68;9.02;;;11.10;99.90;;;;;;5034308;28;20151;-75
2021/12/29 12:33:20;;;;;;;15.73;9.35;;;11.10;99.90;;;;;;5034154;28;20021;-75
2021/12/29 12:35:49;;;;;;;15.63;9.20;;;11.10;99.90;;;;;;5034409;28;20082;-77
2021/12/29 12:38:34;;;;;;;16.15;8.68;;;11.20;99.90;;;;;;5033553;28;20546;-76
2021/12/29 12:41:15;;;;;;;13.10;8.77;;;11.10;99.90;;;;;;5033649;28;20163;-76
2021/12/29 12:43:54;;;;;;;14.38;8.68;;;11.10;99.90;;;;;;5033785;28;20021;-76
2021/12/29 12:46:43;;;;;;;11.63;8.70;;;11.10;99.90;;;;;;5033680;28;20112;-75
2021/12/29 12:49:21;;;;;;;12.60;7.72;;;11.10;99.90;;;;;;5032581;28;20040;-76
2021/12/29 12:52:04;;;;;;;15.63;8.20;;;11.10;99.90;;;;;;5031884;28;20025;-77